Relevés horaires Matro (Suisse)


Relevés horaires à Matro - Samedi 18 Juill. 2026
Heure UTC1 Température [°C] Vent [km/h] Hum. [%] Pres.4 [hPa] Visi. [Km] Nébu. [octa] Préc.5 [mm] Cond.
2m. Res. Ros. Dir.2 Vit. Moy. Raf.3
23:00 11.8 9.5 2.3 NNO 22.2 -- 37.0 52 850(0.1/3h) -- -- -- --
22:00 12.1 9.2 2.6 NNO 31.5 -- 48.2 52 850(0.4/3h) -- -- -- --
21:00 12.3 9.2 3.1 NNO 37.0 -- 46.3 53 850(0.3/3h) -- -- -- --
20:00 12.6 9.7 3.1 NNO 35.2 -- 46.3 52 850(0.2/3h) -- -- -- --
19:00 12.7 9.8 4.1 N 35.2 -- 42.6 56 850 -- -- -- --
18:00 13.2 11.1 4.2 NNO 24.1 -- 50.0 54 850(-0.5/3h) -- -- -- --
17:00 14.3 12.4 4.0 NNO 25.9 -- 40.7 50 850 -- -- -- --
16:00 16.3 16.3 3.6 ONO 7.4 -- 29.6 43 850(-0.6/3h) -- -- -- --
15:00 15.1 14.1 4.5 NNO 16.7 -- 50.0 49 850(-0.5/3h) -- -- -- --
14:00 15.0 13.5 4.5 NNO 22.2 -- 33.3 49 850 -- -- -- --
13:00 16.7 16.3 5.3 SO 13.0 -- 29.6 47 850(-0.3/3h) -- -- -- --
12:00 13.2 10.9 4.6 NNO 27.8 -- 40.7 56 850 -- -- -- --
11:00 14.4 14.4 4.4 SSO 5.6 -- 18.5 51 850 -- -- -- --
10:00 14.3 14.3 4.9 OSO 5.6 -- 20.4 53 850 -- -- -- --
09:00 13.6 13.3 5.0 OSO 7.4 -- 40.7 56 850(0.4/3h) -- -- -- --
08:00 11.5 8.8 6.0 NNO 25.9 -- 40.7 69 850 -- -- -- --
07:00 12.1 10 3.8 NNO 20.4 -- 27.8 57 850(0.2/3h) -- -- -- --
06:00 12.3 10.8 3.3 NNO 14.8 -- 44.4 54 850 -- -- -- --
05:00 11.9 9.9 3.6 NNO 18.5 -- 27.8 57 850 -- -- -- --
04:00 11.9 9.4 3.8 NNO 24.1 -- 35.2 58 850(-0.1/3h) -- -- -- --
03:00 12.0 10 3.8 NNO 18.5 -- 44.4 57 850(-0.3/3h) -- -- -- --
02:00 11.5 8.4 5.1 NNO 31.5 -- 44.4 65 850(-0.5/3h) -- -- -- --
01:00 12.9 11.2 3.6 NNO 18.5 -- 33.3 53 850(-0.8/3h) -- -- -- --
00:00 13.5 11.5 3.3 NO 24.1 -- 46.3 50 850(-0.4/3h) -- -- -- --

1 Coordinated Universal Time. Actuellement il est 04:00 locale et 02:00 UTC.

2 Le vent souffle depuis la direction indiquée vers la direction oposée.

3 Les rafales max. sont disponible 40 min après l'heure du relevé.

4 Pour les stations d'altitude (plus de 600m) le géopotentiel du niveau le plus proche de la pression obligatoire est indiqué.

5 Les stations disposant d'un diffuseur peuvent indiquer "trace". Cela signifie que des précipitations ont touchés le sol mais que la quantité est inférieure à 0.1 mm.

Copyright

Les données affichées sur cette page sont la propriété exclusive de Météo Suisse.

Récapitulatif de la journée
Température [°C] Vent [km/h] Ensoleillement4 [h] Precipitations totale5 [mm] Pression [Hpa]
Min1 Max.2 Moy.3 Max. Min Max.
11.5 16.7 0 50.0 6 h 42 min 0 850.0 850.0

1 Température minimale relevée entre 18:00 UTC la veille et 18:00 UTC le jour donné.

2 Température maximale relevée entre 06:00 UTC le jour donné et 06:00 UTC le lendemain.

3 Vent moyen de la journée basé sur les relevés horaires.

4 Ensoleillement en heures relevé entre 06:00 UTC la veille et 06:00 UTC le jour donné.

5 Précipitations totales tombées entre 06:00 UTC la jour donné et 06:00 UTC le lendemain.

Graphiques horaires